sensor_id;sensor_type;location;lat;lon;timestamp;temperature;humidity
11650;DHT22;5881;48.522;7.682;2023-09-18T00:00:03;20.00;99.90
11650;DHT22;5881;48.522;7.682;2023-09-18T00:02:30;20.10;76.60
11650;DHT22;5881;48.522;7.682;2023-09-18T00:04:56;20.00;1.00
11650;DHT22;5881;48.522;7.682;2023-09-18T00:07:22;20.00;1.00
11650;DHT22;5881;48.522;7.682;2023-09-18T00:09:48;19.90;1.00
11650;DHT22;5881;48.522;7.682;2023-09-18T00:12:14;19.90;1.00
11650;DHT22;5881;48.522;7.682;2023-09-18T00:14:39;19.80;1.00
11650;DHT22;5881;48.522;7.682;2023-09-18T00:17:06;19.80;1.00
11650;DHT22;5881;48.522;7.682;2023-09-18T00:19:32;19.90;1.00
11650;DHT22;5881;48.522;7.682;2023-09-18T00:21:59;19.90;1.00
11650;DHT22;5881;48.522;7.682;2023-09-18T00:24:27;20.00;1.00
11650;DHT22;5881;48.522;7.682;2023-09-18T00:26:52;20.00;1.00
11650;DHT22;5881;48.522;7.682;2023-09-18T00:29:18;20.00;1.00
11650;DHT22;5881;48.522;7.682;2023-09-18T00:31:44;20.10;1.00
11650;DHT22;5881;48.522;7.682;2023-09-18T00:34:10;20.10;1.00
11650;DHT22;5881;48.522;7.682;2023-09-18T00:36:35;20.10;1.00
11650;DHT22;5881;48.522;7.682;2023-09-18T00:39:01;20.20;1.00
11650;DHT22;5881;48.522;7.682;2023-09-18T00:41:27;20.20;99.90
11650;DHT22;5881;48.522;7.682;2023-09-18T00:43:52;20.10;99.90
11650;DHT22;5881;48.522;7.682;2023-09-18T00:46:19;20.00;1.00
11650;DHT22;5881;48.522;7.682;2023-09-18T00:48:45;19.90;1.00
11650;DHT22;5881;48.522;7.682;2023-09-18T00:51:12;19.90;1.00
11650;DHT22;5881;48.522;7.682;2023-09-18T00:53:38;19.90;1.00
11650;DHT22;5881;48.522;7.682;2023-09-18T00:56:04;19.90;1.00
11650;DHT22;5881;48.522;7.682;2023-09-18T00:58:31;19.90;1.00
11650;DHT22;5881;48.522;7.682;2023-09-18T01:00:58;19.90;1.00
11650;DHT22;5881;48.522;7.682;2023-09-18T01:03:24;19.90;1.00
11650;DHT22;5881;48.522;7.682;2023-09-18T01:05:53;20.00;1.00
11650;DHT22;5881;48.522;7.682;2023-09-18T01:08:18;20.00;1.00
11650;DHT22;5881;48.522;7.682;2023-09-18T01:11:06;20.10;1.00
11650;DHT22;5881;48.522;7.682;2023-09-18T01:13:54;20.00;1.00
11650;DHT22;5881;48.522;7.682;2023-09-18T01:16:30;19.80;1.00
11650;DHT22;5881;48.522;7.682;2023-09-18T01:18:57;19.90;1.00
11650;DHT22;5881;48.522;7.682;2023-09-18T01:21:23;19.80;1.00
11650;DHT22;5881;48.522;7.682;2023-09-18T01:23:49;19.70;1.00
11650;DHT22;5881;48.522;7.682;2023-09-18T01:26:15;19.80;1.00
11650;DHT22;5881;48.522;7.682;2023-09-18T01:28:40;19.70;1.00
11650;DHT22;5881;48.522;7.682;2023-09-18T01:31:06;19.70;1.00
11650;DHT22;5881;48.522;7.682;2023-09-18T01:33:34;19.80;1.00
11650;DHT22;5881;48.522;7.682;2023-09-18T01:36:00;19.80;1.00
11650;DHT22;5881;48.522;7.682;2023-09-18T01:38:27;19.80;99.90
11650;DHT22;5881;48.522;7.682;2023-09-18T01:40:53;19.90;99.90
11650;DHT22;5881;48.522;7.682;2023-09-18T01:43:20;19.90;99.90
11650;DHT22;5881;48.522;7.682;2023-09-18T01:45:46;19.60;1.00
11650;DHT22;5881;48.522;7.682;2023-09-18T01:48:13;19.50;1.00
11650;DHT22;5881;48.522;7.682;2023-09-18T01:50:38;19.30;99.30
11650;DHT22;5881;48.522;7.682;2023-09-18T01:53:06;19.10;99.90
11650;DHT22;5881;48.522;7.682;2023-09-18T01:55:31;19.10;99.90
11650;DHT22;5881;48.522;7.682;2023-09-18T01:57:58;19.10;1.00
11650;DHT22;5881;48.522;7.682;2023-09-18T02:00:24;19.10;99.90
11650;DHT22;5881;48.522;7.682;2023-09-18T02:02:50;18.90;1.00
11650;DHT22;5881;48.522;7.682;2023-09-18T02:05:15;18.90;1.00
11650;DHT22;5881;48.522;7.682;2023-09-18T02:07:41;18.80;1.00
11650;DHT22;5881;48.522;7.682;2023-09-18T02:10:07;18.80;58.30
11650;DHT22;5881;48.522;7.682;2023-09-18T02:12:32;18.80;99.90
11650;DHT22;5881;48.522;7.682;2023-09-18T02:14:58;18.80;99.90
11650;DHT22;5881;48.522;7.682;2023-09-18T02:17:26;18.80;99.90
11650;DHT22;5881;48.522;7.682;2023-09-18T02:19:52;18.80;99.90
11650;DHT22;5881;48.522;7.682;2023-09-18T02:22:17;18.90;99.90
11650;DHT22;5881;48.522;7.682;2023-09-18T02:24:43;18.90;99.90
11650;DHT22;5881;48.522;7.682;2023-09-18T02:27:08;18.80;99.90
11650;DHT22;5881;48.522;7.682;2023-09-18T02:29:36;18.80;99.90
11650;DHT22;5881;48.522;7.682;2023-09-18T02:32:01;18.80;99.90
11650;DHT22;5881;48.522;7.682;2023-09-18T02:34:27;18.80;99.90
11650;DHT22;5881;48.522;7.682;2023-09-18T02:36:53;19.00;99.90
11650;DHT22;5881;48.522;7.682;2023-09-18T02:39:19;19.10;99.90
11650;DHT22;5881;48.522;7.682;2023-09-18T02:41:44;19.30;99.90
11650;DHT22;5881;48.522;7.682;2023-09-18T02:44:10;19.30;99.90
11650;DHT22;5881;48.522;7.682;2023-09-18T02:46:37;19.30;99.90
11650;DHT22;5881;48.522;7.682;2023-09-18T02:49:03;19.30;1.00
11650;DHT22;5881;48.522;7.682;2023-09-18T02:51:29;19.70;1.00
11650;DHT22;5881;48.522;7.682;2023-09-18T02:53:57;19.80;1.00
11650;DHT22;5881;48.522;7.682;2023-09-18T02:56:22;19.80;1.00
11650;DHT22;5881;48.522;7.682;2023-09-18T02:58:48;19.70;99.90
11650;DHT22;5881;48.522;7.682;2023-09-18T03:01:14;19.70;1.00
11650;DHT22;5881;48.522;7.682;2023-09-18T03:03:40;19.60;1.00
11650;DHT22;5881;48.522;7.682;2023-09-18T03:06:07;19.60;1.00
11650;DHT22;5881;48.522;7.682;2023-09-18T03:08:33;19.60;1.00
11650;DHT22;5881;48.522;7.682;2023-09-18T03:10:58;19.50;1.00
11650;DHT22;5881;48.522;7.682;2023-09-18T03:13:26;19.40;99.90
11650;DHT22;5881;48.522;7.682;2023-09-18T03:15:52;19.30;99.90
11650;DHT22;5881;48.522;7.682;2023-09-18T03:18:18;19.30;99.90
11650;DHT22;5881;48.522;7.682;2023-09-18T03:20:43;19.10;99.90
11650;DHT22;5881;48.522;7.682;2023-09-18T03:23:09;19.10;99.90
11650;DHT22;5881;48.522;7.682;2023-09-18T03:25:35;19.00;99.90
11650;DHT22;5881;48.522;7.682;2023-09-18T03:28:02;18.90;99.90
11650;DHT22;5881;48.522;7.682;2023-09-18T03:30:28;18.90;99.90
11650;DHT22;5881;48.522;7.682;2023-09-18T03:32:54;18.90;99.90
11650;DHT22;5881;48.522;7.682;2023-09-18T03:35:20;18.90;99.90
11650;DHT22;5881;48.522;7.682;2023-09-18T03:37:47;18.90;99.90
11650;DHT22;5881;48.522;7.682;2023-09-18T03:40:13;18.90;99.90
11650;DHT22;5881;48.522;7.682;2023-09-18T03:42:39;18.80;99.90
11650;DHT22;5881;48.522;7.682;2023-09-18T03:45:08;18.80;99.90
11650;DHT22;5881;48.522;7.682;2023-09-18T03:47:35;18.80;99.90
11650;DHT22;5881;48.522;7.682;2023-09-18T03:50:11;18.80;99.90
11650;DHT22;5881;48.522;7.682;2023-09-18T03:52:38;18.70;99.90
11650;DHT22;5881;48.522;7.682;2023-09-18T03:55:04;18.70;99.90
11650;DHT22;5881;48.522;7.682;2023-09-18T03:57:30;18.80;99.90
11650;DHT22;5881;48.522;7.682;2023-09-18T03:59:56;18.80;99.90
11650;DHT22;5881;48.522;7.682;2023-09-18T04:02:23;18.80;99.90
11650;DHT22;5881;48.522;7.682;2023-09-18T04:04:49;18.70;99.90
11650;DHT22;5881;48.522;7.682;2023-09-18T04:07:15;18.70;99.90
11650;DHT22;5881;48.522;7.682;2023-09-18T04:09:42;18.70;99.90
11650;DHT22;5881;48.522;7.682;2023-09-18T04:12:08;18.70;99.90
11650;DHT22;5881;48.522;7.682;2023-09-18T04:14:34;18.80;99.90
11650;DHT22;5881;48.522;7.682;2023-09-18T04:16:59;18.80;99.90
11650;DHT22;5881;48.522;7.682;2023-09-18T04:19:28;18.70;99.90
11650;DHT22;5881;48.522;7.682;2023-09-18T04:21:55;18.70;99.90
11650;DHT22;5881;48.522;7.682;2023-09-18T04:24:21;18.70;99.90
11650;DHT22;5881;48.522;7.682;2023-09-18T04:26:47;18.70;99.90
11650;DHT22;5881;48.522;7.682;2023-09-18T04:29:12;18.70;99.90
11650;DHT22;5881;48.522;7.682;2023-09-18T04:31:38;18.70;99.90
11650;DHT22;5881;48.522;7.682;2023-09-18T04:34:04;18.70;99.90
11650;DHT22;5881;48.522;7.682;2023-09-18T04:36:30;18.70;99.90
11650;DHT22;5881;48.522;7.682;2023-09-18T04:38:57;18.70;99.90
11650;DHT22;5881;48.522;7.682;2023-09-18T04:41:22;18.70;99.90
11650;DHT22;5881;48.522;7.682;2023-09-18T04:43:48;18.70;99.90
11650;DHT22;5881;48.522;7.682;2023-09-18T04:46:14;18.70;99.90
11650;DHT22;5881;48.522;7.682;2023-09-18T04:48:39;18.70;99.90
11650;DHT22;5881;48.522;7.682;2023-09-18T04:51:05;18.70;99.90
11650;DHT22;5881;48.522;7.682;2023-09-18T04:53:31;18.80;99.90
11650;DHT22;5881;48.522;7.682;2023-09-18T04:55:57;18.70;99.90
11650;DHT22;5881;48.522;7.682;2023-09-18T04:58:23;18.80;99.90
11650;DHT22;5881;48.522;7.682;2023-09-18T05:00:55;18.80;99.90
11650;DHT22;5881;48.522;7.682;2023-09-18T05:03:21;18.80;99.90
11650;DHT22;5881;48.522;7.682;2023-09-18T05:05:47;18.80;99.90
11650;DHT22;5881;48.522;7.682;2023-09-18T05:08:13;18.80;99.90
11650;DHT22;5881;48.522;7.682;2023-09-18T05:10:39;18.80;99.90
11650;DHT22;5881;48.522;7.682;2023-09-18T05:13:04;18.80;99.90
11650;DHT22;5881;48.522;7.682;2023-09-18T05:15:30;18.80;99.90
11650;DHT22;5881;48.522;7.682;2023-09-18T05:17:58;18.80;99.90
11650;DHT22;5881;48.522;7.682;2023-09-18T05:20:25;18.80;99.90
11650;DHT22;5881;48.522;7.682;2023-09-18T05:22:51;18.80;99.90
11650;DHT22;5881;48.522;7.682;2023-09-18T05:25:22;18.80;99.90
11650;DHT22;5881;48.522;7.682;2023-09-18T05:27:52;18.70;99.90
11650;DHT22;5881;48.522;7.682;2023-09-18T05:30:26;18.70;99.90
11650;DHT22;5881;48.522;7.682;2023-09-18T05:32:57;18.80;99.90
11650;DHT22;5881;48.522;7.682;2023-09-18T05:35:29;18.70;99.90
11650;DHT22;5881;48.522;7.682;2023-09-18T05:37:55;18.70;99.90
11650;DHT22;5881;48.522;7.682;2023-09-18T05:40:22;18.70;99.90
11650;DHT22;5881;48.522;7.682;2023-09-18T05:42:48;18.70;99.90
11650;DHT22;5881;48.522;7.682;2023-09-18T05:45:14;18.70;99.90
11650;DHT22;5881;48.522;7.682;2023-09-18T05:47:40;18.70;99.90
11650;DHT22;5881;48.522;7.682;2023-09-18T05:50:09;18.60;99.90
11650;DHT22;5881;48.522;7.682;2023-09-18T05:52:35;18.60;99.90
11650;DHT22;5881;48.522;7.682;2023-09-18T05:55:04;18.60;99.90
11650;DHT22;5881;48.522;7.682;2023-09-18T05:57:30;18.60;99.90
11650;DHT22;5881;48.522;7.682;2023-09-18T05:59:56;18.60;99.90
11650;DHT22;5881;48.522;7.682;2023-09-18T06:02:22;18.60;99.90
11650;DHT22;5881;48.522;7.682;2023-09-18T06:04:49;18.60;99.90
11650;DHT22;5881;48.522;7.682;2023-09-18T06:07:14;18.60;99.90
11650;DHT22;5881;48.522;7.682;2023-09-18T06:09:40;18.70;99.90
11650;DHT22;5881;48.522;7.682;2023-09-18T06:12:06;18.70;99.90
11650;DHT22;5881;48.522;7.682;2023-09-18T06:14:32;18.70;99.90
11650;DHT22;5881;48.522;7.682;2023-09-18T06:17:04;18.70;93.80
11650;DHT22;5881;48.522;7.682;2023-09-18T06:19:29;18.80;99.90
11650;DHT22;5881;48.522;7.682;2023-09-18T06:21:55;18.70;61.70
11650;DHT22;5881;48.522;7.682;2023-09-18T06:24:20;18.80;9.10
11650;DHT22;5881;48.522;7.682;2023-09-18T06:26:46;18.80;14.10
11650;DHT22;5881;48.522;7.682;2023-09-18T06:29:12;18.80;1.00
11650;DHT22;5881;48.522;7.682;2023-09-18T06:31:37;18.80;1.00
11650;DHT22;5881;48.522;7.682;2023-09-18T06:34:03;18.80;1.00
11650;DHT22;5881;48.522;7.682;2023-09-18T06:36:28;18.80;1.00
11650;DHT22;5881;48.522;7.682;2023-09-18T06:38:54;18.80;1.00
11650;DHT22;5881;48.522;7.682;2023-09-18T06:41:19;18.80;1.00
11650;DHT22;5881;48.522;7.682;2023-09-18T06:43:45;18.80;1.00
11650;DHT22;5881;48.522;7.682;2023-09-18T06:46:11;18.80;1.00
11650;DHT22;5881;48.522;7.682;2023-09-18T06:48:36;18.80;1.00
11650;DHT22;5881;48.522;7.682;2023-09-18T06:51:02;18.80;1.00
11650;DHT22;5881;48.522;7.682;2023-09-18T06:53:28;18.80;1.00
11650;DHT22;5881;48.522;7.682;2023-09-18T06:55:54;18.80;93.00
11650;DHT22;5881;48.522;7.682;2023-09-18T06:58:20;18.80;99.90
11650;DHT22;5881;48.522;7.682;2023-09-18T07:00:46;18.80;99.90
11650;DHT22;5881;48.522;7.682;2023-09-18T07:03:12;18.80;99.90
11650;DHT22;5881;48.522;7.682;2023-09-18T07:05:37;18.70;99.90
11650;DHT22;5881;48.522;7.682;2023-09-18T07:08:03;18.70;99.90
11650;DHT22;5881;48.522;7.682;2023-09-18T07:10:31;18.70;99.90
11650;DHT22;5881;48.522;7.682;2023-09-18T07:12:56;18.70;99.90
11650;DHT22;5881;48.522;7.682;2023-09-18T07:15:22;18.60;99.90
11650;DHT22;5881;48.522;7.682;2023-09-18T07:17:48;18.60;99.90
11650;DHT22;5881;48.522;7.682;2023-09-18T07:20:14;18.70;99.90
11650;DHT22;5881;48.522;7.682;2023-09-18T07:22:48;18.60;99.90
11650;DHT22;5881;48.522;7.682;2023-09-18T07:25:15;18.60;99.90
11650;DHT22;5881;48.522;7.682;2023-09-18T07:27:40;18.60;99.90
11650;DHT22;5881;48.522;7.682;2023-09-18T07:30:10;18.60;99.90
11650;DHT22;5881;48.522;7.682;2023-09-18T07:32:39;18.60;99.90
11650;DHT22;5881;48.522;7.682;2023-09-18T07:35:07;18.60;99.90
11650;DHT22;5881;48.522;7.682;2023-09-18T07:37:32;18.60;99.90
11650;DHT22;5881;48.522;7.682;2023-09-18T07:39:58;18.60;99.90
11650;DHT22;5881;48.522;7.682;2023-09-18T07:42:25;18.60;99.90
11650;DHT22;5881;48.522;7.682;2023-09-18T07:44:51;18.60;99.90
11650;DHT22;5881;48.522;7.682;2023-09-18T07:47:16;18.60;99.90
11650;DHT22;5881;48.522;7.682;2023-09-18T07:49:42;18.60;99.90
11650;DHT22;5881;48.522;7.682;2023-09-18T07:52:08;18.60;99.90
11650;DHT22;5881;48.522;7.682;2023-09-18T07:54:34;18.70;99.90
11650;DHT22;5881;48.522;7.682;2023-09-18T07:56:59;18.70;99.90
11650;DHT22;5881;48.522;7.682;2023-09-18T07:59:25;18.70;99.90
11650;DHT22;5881;48.522;7.682;2023-09-18T08:01:51;18.70;99.90
11650;DHT22;5881;48.522;7.682;2023-09-18T08:04:17;18.80;99.90
11650;DHT22;5881;48.522;7.682;2023-09-18T08:06:43;18.80;99.90
11650;DHT22;5881;48.522;7.682;2023-09-18T08:09:08;18.90;99.90
11650;DHT22;5881;48.522;7.682;2023-09-18T08:11:39;18.90;99.90
11650;DHT22;5881;48.522;7.682;2023-09-18T08:14:07;19.00;99.90
11650;DHT22;5881;48.522;7.682;2023-09-18T08:16:33;19.00;99.90
11650;DHT22;5881;48.522;7.682;2023-09-18T08:19:00;19.00;99.90
11650;DHT22;5881;48.522;7.682;2023-09-18T08:21:26;19.10;99.90
11650;DHT22;5881;48.522;7.682;2023-09-18T08:23:54;19.10;99.90
11650;DHT22;5881;48.522;7.682;2023-09-18T08:26:21;19.20;99.90
11650;DHT22;5881;48.522;7.682;2023-09-18T08:28:47;19.10;99.90
11650;DHT22;5881;48.522;7.682;2023-09-18T08:31:12;19.20;99.90
11650;DHT22;5881;48.522;7.682;2023-09-18T08:33:39;19.10;99.90
11650;DHT22;5881;48.522;7.682;2023-09-18T08:36:05;19.20;99.90
11650;DHT22;5881;48.522;7.682;2023-09-18T08:38:31;19.10;99.90
11650;DHT22;5881;48.522;7.682;2023-09-18T08:40:57;19.10;99.90
11650;DHT22;5881;48.522;7.682;2023-09-18T08:43:24;19.10;99.90
11650;DHT22;5881;48.522;7.682;2023-09-18T08:45:54;19.10;99.90
11650;DHT22;5881;48.522;7.682;2023-09-18T08:48:21;19.10;99.90
11650;DHT22;5881;48.522;7.682;2023-09-18T08:50:50;19.00;99.90
11650;DHT22;5881;48.522;7.682;2023-09-18T08:53:16;19.00;99.90
11650;DHT22;5881;48.522;7.682;2023-09-18T08:55:42;19.00;99.90
11650;DHT22;5881;48.522;7.682;2023-09-18T09:00:37;19.20;99.90
11650;DHT22;5881;48.522;7.682;2023-09-18T09:03:04;19.20;99.90
11650;DHT22;5881;48.522;7.682;2023-09-18T09:05:30;19.20;99.90
11650;DHT22;5881;48.522;7.682;2023-09-18T09:07:57;19.30;99.90
11650;DHT22;5881;48.522;7.682;2023-09-18T09:10:23;19.30;99.90
11650;DHT22;5881;48.522;7.682;2023-09-18T09:12:58;19.30;90.50
11650;DHT22;5881;48.522;7.682;2023-09-18T09:15:27;19.50;1.00
11650;DHT22;5881;48.522;7.682;2023-09-18T09:18:05;19.50;1.00
11650;DHT22;5881;48.522;7.682;2023-09-18T09:20:32;19.70;1.00
11650;DHT22;5881;48.522;7.682;2023-09-18T09:23:01;19.70;1.00
11650;DHT22;5881;48.522;7.682;2023-09-18T09:25:29;19.70;99.90
11650;DHT22;5881;48.522;7.682;2023-09-18T09:27:57;19.60;1.00
11650;DHT22;5881;48.522;7.682;2023-09-18T09:30:25;19.60;1.00
11650;DHT22;5881;48.522;7.682;2023-09-18T09:32:55;19.60;99.90
11650;DHT22;5881;48.522;7.682;2023-09-18T09:35:30;19.60;99.90
11650;DHT22;5881;48.522;7.682;2023-09-18T09:38:01;19.70;99.90
11650;DHT22;5881;48.522;7.682;2023-09-18T09:40:28;19.80;3.40
11650;DHT22;5881;48.522;7.682;2023-09-18T09:42:56;19.90;1.00
11650;DHT22;5881;48.522;7.682;2023-09-18T09:45:30;20.00;1.00
11650;DHT22;5881;48.522;7.682;2023-09-18T09:48:01;20.20;99.90
11650;DHT22;5881;48.522;7.682;2023-09-18T09:50:27;20.30;99.90
11650;DHT22;5881;48.522;7.682;2023-09-18T09:52:54;20.40;99.90
11650;DHT22;5881;48.522;7.682;2023-09-18T09:55:31;20.50;1.00
11650;DHT22;5881;48.522;7.682;2023-09-18T09:58:00;20.50;1.00
11650;DHT22;5881;48.522;7.682;2023-09-18T10:03:00;20.30;99.90
11650;DHT22;5881;48.522;7.682;2023-09-18T10:05:34;20.30;99.90
11650;DHT22;5881;48.522;7.682;2023-09-18T10:08:04;20.40;99.90
11650;DHT22;5881;48.522;7.682;2023-09-18T10:10:35;20.40;99.90
11650;DHT22;5881;48.522;7.682;2023-09-18T10:13:10;20.50;99.90
11650;DHT22;5881;48.522;7.682;2023-09-18T10:15:38;20.40;99.90
11650;DHT22;5881;48.522;7.682;2023-09-18T10:18:16;20.50;99.90
11650;DHT22;5881;48.522;7.682;2023-09-18T10:20:44;20.60;99.90
11650;DHT22;5881;48.522;7.682;2023-09-18T10:23:21;20.70;1.00
11650;DHT22;5881;48.522;7.682;2023-09-18T10:25:53;20.80;1.00
11650;DHT22;5881;48.522;7.682;2023-09-18T10:28:23;20.80;1.00
11650;DHT22;5881;48.522;7.682;2023-09-18T10:30:49;20.80;1.00
11650;DHT22;5881;48.522;7.682;2023-09-18T10:33:16;21.00;1.00
11650;DHT22;5881;48.522;7.682;2023-09-18T10:35:42;21.00;99.90
11650;DHT22;5881;48.522;7.682;2023-09-18T10:38:09;21.00;99.90
11650;DHT22;5881;48.522;7.682;2023-09-18T10:40:36;21.00;99.90
11650;DHT22;5881;48.522;7.682;2023-09-18T10:43:04;21.40;1.00
11650;DHT22;5881;48.522;7.682;2023-09-18T10:45:35;21.60;99.90
11650;DHT22;5881;48.522;7.682;2023-09-18T10:48:01;22.00;99.90
11650;DHT22;5881;48.522;7.682;2023-09-18T10:50:29;21.90;99.90
11650;DHT22;5881;48.522;7.682;2023-09-18T10:52:57;22.40;99.90
11650;DHT22;5881;48.522;7.682;2023-09-18T10:55:24;22.80;99.90
11650;DHT22;5881;48.522;7.682;2023-09-18T11:00:18;23.30;99.90
11650;DHT22;5881;48.522;7.682;2023-09-18T11:02:50;23.50;99.90
11650;DHT22;5881;48.522;7.682;2023-09-18T11:05:32;23.20;99.90
11650;DHT22;5881;48.522;7.682;2023-09-18T11:13:51;22.80;99.90
11650;DHT22;5881;48.522;7.682;2023-09-18T11:21:24;22.40;99.90
11650;DHT22;5881;48.522;7.682;2023-09-18T11:24:07;22.70;99.90
11650;DHT22;5881;48.522;7.682;2023-09-18T11:26:39;22.70;99.90
11650;DHT22;5881;48.522;7.682;2023-09-18T11:29:26;22.40;99.90
11650;DHT22;5881;48.522;7.682;2023-09-18T11:31:55;22.20;99.90
11650;DHT22;5881;48.522;7.682;2023-09-18T11:34:31;22.30;99.90
11650;DHT22;5881;48.522;7.682;2023-09-18T11:37:00;22.20;99.90
11650;DHT22;5881;48.522;7.682;2023-09-18T11:39:39;22.00;99.90
11650;DHT22;5881;48.522;7.682;2023-09-18T11:42:20;21.90;99.90
11650;DHT22;5881;48.522;7.682;2023-09-18T11:44:49;21.90;99.90
11650;DHT22;5881;48.522;7.682;2023-09-18T11:47:24;22.00;99.90
11650;DHT22;5881;48.522;7.682;2023-09-18T11:49:58;21.90;99.90
11650;DHT22;5881;48.522;7.682;2023-09-18T11:52:29;22.10;99.90
11650;DHT22;5881;48.522;7.682;2023-09-18T11:54:59;22.30;99.90
11650;DHT22;5881;48.522;7.682;2023-09-18T11:57:25;22.40;99.90
11650;DHT22;5881;48.522;7.682;2023-09-18T11:59:53;22.50;99.90
11650;DHT22;5881;48.522;7.682;2023-09-18T12:02:30;22.40;99.90
11650;DHT22;5881;48.522;7.682;2023-09-18T12:05:20;22.70;99.90
11650;DHT22;5881;48.522;7.682;2023-09-18T12:07:47;22.90;99.90
11650;DHT22;5881;48.522;7.682;2023-09-18T12:10:17;22.70;99.90
11650;DHT22;5881;48.522;7.682;2023-09-18T12:12:43;22.80;99.90
11650;DHT22;5881;48.522;7.682;2023-09-18T12:15:17;22.80;99.90
11650;DHT22;5881;48.522;7.682;2023-09-18T12:17:43;22.60;99.90
11650;DHT22;5881;48.522;7.682;2023-09-18T12:20:16;22.80;99.90
11650;DHT22;5881;48.522;7.682;2023-09-18T12:22:48;23.00;99.90
11650;DHT22;5881;48.522;7.682;2023-09-18T12:25:15;22.80;99.90
11650;DHT22;5881;48.522;7.682;2023-09-18T12:27:43;22.80;99.90
11650;DHT22;5881;48.522;7.682;2023-09-18T12:30:10;22.70;99.90
11650;DHT22;5881;48.522;7.682;2023-09-18T12:32:39;22.60;99.90
11650;DHT22;5881;48.522;7.682;2023-09-18T12:35:08;22.80;99.90
11650;DHT22;5881;48.522;7.682;2023-09-18T12:37:38;22.90;99.90
11650;DHT22;5881;48.522;7.682;2023-09-18T12:40:05;22.80;99.90
11650;DHT22;5881;48.522;7.682;2023-09-18T12:42:36;22.90;99.90
11650;DHT22;5881;48.522;7.682;2023-09-18T12:45:06;23.10;99.90
11650;DHT22;5881;48.522;7.682;2023-09-18T12:47:33;23.40;99.90
11650;DHT22;5881;48.522;7.682;2023-09-18T12:50:03;23.50;99.90
11650;DHT22;5881;48.522;7.682;2023-09-18T12:52:29;23.80;99.90
11650;DHT22;5881;48.522;7.682;2023-09-18T12:54:54;24.40;99.90
11650;DHT22;5881;48.522;7.682;2023-09-18T12:57:21;24.40;99.90
11650;DHT22;5881;48.522;7.682;2023-09-18T12:59:48;24.10;99.90
11650;DHT22;5881;48.522;7.682;2023-09-18T13:02:19;24.20;99.90
11650;DHT22;5881;48.522;7.682;2023-09-18T13:04:55;23.50;99.90
11650;DHT22;5881;48.522;7.682;2023-09-18T13:07:23;23.50;99.90
11650;DHT22;5881;48.522;7.682;2023-09-18T13:10:08;23.70;99.90
11650;DHT22;5881;48.522;7.682;2023-09-18T13:12:49;23.40;99.90
11650;DHT22;5881;48.522;7.682;2023-09-18T13:15:31;23.60;99.90
11650;DHT22;5881;48.522;7.682;2023-09-18T13:18:00;23.50;99.90
11650;DHT22;5881;48.522;7.682;2023-09-18T13:20:27;23.30;99.90
11650;DHT22;5881;48.522;7.682;2023-09-18T13:22:56;23.50;99.90
11650;DHT22;5881;48.522;7.682;2023-09-18T13:25:23;23.60;99.90
11650;DHT22;5881;48.522;7.682;2023-09-18T13:27:50;23.50;99.90
11650;DHT22;5881;48.522;7.682;2023-09-18T13:30:16;23.40;99.90
11650;DHT22;5881;48.522;7.682;2023-09-18T13:32:44;23.60;99.90
11650;DHT22;5881;48.522;7.682;2023-09-18T13:35:10;23.60;99.90
11650;DHT22;5881;48.522;7.682;2023-09-18T13:37:38;23.40;99.90
11650;DHT22;5881;48.522;7.682;2023-09-18T13:40:07;23.70;99.90
11650;DHT22;5881;48.522;7.682;2023-09-18T13:42:38;24.00;99.90
11650;DHT22;5881;48.522;7.682;2023-09-18T13:45:04;23.80;99.90
11650;DHT22;5881;48.522;7.682;2023-09-18T13:47:32;23.50;99.90
11650;DHT22;5881;48.522;7.682;2023-09-18T13:49:59;23.60;99.90
11650;DHT22;5881;48.522;7.682;2023-09-18T13:52:32;23.80;99.90
11650;DHT22;5881;48.522;7.682;2023-09-18T13:54:58;23.90;99.90
11650;DHT22;5881;48.522;7.682;2023-09-18T13:57:24;24.00;99.90
11650;DHT22;5881;48.522;7.682;2023-09-18T13:59:51;24.10;99.90
11650;DHT22;5881;48.522;7.682;2023-09-18T14:02:17;23.90;99.90
11650;DHT22;5881;48.522;7.682;2023-09-18T14:04:43;23.70;99.90
11650;DHT22;5881;48.522;7.682;2023-09-18T14:07:11;24.00;99.90
11650;DHT22;5881;48.522;7.682;2023-09-18T14:09:37;23.90;99.90
11650;DHT22;5881;48.522;7.682;2023-09-18T14:12:04;23.80;99.90
11650;DHT22;5881;48.522;7.682;2023-09-18T14:14:32;23.90;99.90
11650;DHT22;5881;48.522;7.682;2023-09-18T14:16:58;23.90;99.90
11650;DHT22;5881;48.522;7.682;2023-09-18T14:19:24;23.90;99.90
11650;DHT22;5881;48.522;7.682;2023-09-18T14:21:49;23.90;99.90
11650;DHT22;5881;48.522;7.682;2023-09-18T14:24:18;24.10;99.90
11650;DHT22;5881;48.522;7.682;2023-09-18T14:26:48;24.20;99.90
11650;DHT22;5881;48.522;7.682;2023-09-18T14:29:14;23.90;99.90
11650;DHT22;5881;48.522;7.682;2023-09-18T14:31:40;23.80;99.90
11650;DHT22;5881;48.522;7.682;2023-09-18T14:34:07;24.10;99.90
11650;DHT22;5881;48.522;7.682;2023-09-18T14:36:34;24.20;99.90
11650;DHT22;5881;48.522;7.682;2023-09-18T14:39:00;24.10;99.90
11650;DHT22;5881;48.522;7.682;2023-09-18T14:41:27;24.00;99.90
11650;DHT22;5881;48.522;7.682;2023-09-18T14:43:53;23.80;99.90
11650;DHT22;5881;48.522;7.682;2023-09-18T14:46:19;23.80;99.90
11650;DHT22;5881;48.522;7.682;2023-09-18T14:48:45;23.80;99.90
11650;DHT22;5881;48.522;7.682;2023-09-18T14:51:11;23.90;99.90
11650;DHT22;5881;48.522;7.682;2023-09-18T14:53:37;24.00;99.90
11650;DHT22;5881;48.522;7.682;2023-09-18T14:56:03;24.00;99.90
11650;DHT22;5881;48.522;7.682;2023-09-18T14:58:30;23.70;99.90
11650;DHT22;5881;48.522;7.682;2023-09-18T15:00:57;23.70;99.90
11650;DHT22;5881;48.522;7.682;2023-09-18T15:03:22;23.70;99.90
11650;DHT22;5881;48.522;7.682;2023-09-18T15:05:50;23.80;99.90
11650;DHT22;5881;48.522;7.682;2023-09-18T15:08:16;23.80;99.90
11650;DHT22;5881;48.522;7.682;2023-09-18T15:10:45;23.90;99.90
11650;DHT22;5881;48.522;7.682;2023-09-18T15:13:11;23.80;99.90
11650;DHT22;5881;48.522;7.682;2023-09-18T15:15:36;23.80;99.90
11650;DHT22;5881;48.522;7.682;2023-09-18T15:18:02;23.70;99.90
11650;DHT22;5881;48.522;7.682;2023-09-18T15:20:28;23.90;99.90
11650;DHT22;5881;48.522;7.682;2023-09-18T15:22:53;24.00;99.90
11650;DHT22;5881;48.522;7.682;2023-09-18T15:25:21;23.80;99.90
11650;DHT22;5881;48.522;7.682;2023-09-18T15:27:47;23.80;99.90
11650;DHT22;5881;48.522;7.682;2023-09-18T15:30:13;23.60;99.90
11650;DHT22;5881;48.522;7.682;2023-09-18T15:32:48;23.80;99.90
11650;DHT22;5881;48.522;7.682;2023-09-18T15:35:19;23.80;99.90
11650;DHT22;5881;48.522;7.682;2023-09-18T15:37:44;23.90;99.90
11650;DHT22;5881;48.522;7.682;2023-09-18T15:40:11;24.00;99.90
11650;DHT22;5881;48.522;7.682;2023-09-18T15:42:38;24.00;99.90
11650;DHT22;5881;48.522;7.682;2023-09-18T15:45:08;24.00;99.90
11650;DHT22;5881;48.522;7.682;2023-09-18T15:47:40;23.90;99.90
11650;DHT22;5881;48.522;7.682;2023-09-18T15:50:06;24.00;99.90
11650;DHT22;5881;48.522;7.682;2023-09-18T15:52:32;23.80;99.90
11650;DHT22;5881;48.522;7.682;2023-09-18T15:54:59;23.90;99.90
11650;DHT22;5881;48.522;7.682;2023-09-18T15:57:25;23.90;99.90
11650;DHT22;5881;48.522;7.682;2023-09-18T15:59:52;23.70;99.90
11650;DHT22;5881;48.522;7.682;2023-09-18T16:02:18;23.70;99.90
11650;DHT22;5881;48.522;7.682;2023-09-18T16:04:44;23.50;99.90
11650;DHT22;5881;48.522;7.682;2023-09-18T16:07:11;23.30;99.90
11650;DHT22;5881;48.522;7.682;2023-09-18T16:09:38;23.30;99.90